createdAt,value
2023-03-29T00:02:10.433Z,18.63
2023-03-29T00:04:40.023Z,18.60
2023-03-29T00:07:09.354Z,18.71
2023-03-29T00:09:38.533Z,18.71
2023-03-29T00:12:08.377Z,18.72
2023-03-29T00:14:37.550Z,18.71
2023-03-29T00:17:07.675Z,18.72
2023-03-29T00:19:38.014Z,18.76
2023-03-29T00:22:07.435Z,18.76
2023-03-29T00:24:37.870Z,18.66
2023-03-29T00:27:09.093Z,18.70
2023-03-29T00:29:39.072Z,18.76
2023-03-29T00:32:09.399Z,18.74
2023-03-29T00:34:38.499Z,18.69
2023-03-29T00:37:10.293Z,18.65
2023-03-29T00:39:43.156Z,18.62
2023-03-29T00:42:17.154Z,18.66
2023-03-29T00:45:08.618Z,18.62
2023-03-29T00:47:58.137Z,18.56
2023-03-29T00:50:42.400Z,18.58
2023-03-29T00:53:37.361Z,18.67
2023-03-29T00:56:15.120Z,18.64
2023-03-29T00:59:06.175Z,18.57
2023-03-29T01:01:47.051Z,18.52
2023-03-29T01:04:30.480Z,18.52
2023-03-29T01:07:44.105Z,18.62
2023-03-29T01:10:22.066Z,18.71
2023-03-29T01:13:01.887Z,18.63
2023-03-29T01:15:31.977Z,18.55
2023-03-29T01:18:02.839Z,18.52
2023-03-29T01:20:44.765Z,18.48
2023-03-29T01:23:32.669Z,18.45
2023-03-29T01:26:40.168Z,18.43
2023-03-29T01:29:17.824Z,18.50
2023-03-29T01:31:52.966Z,18.55
2023-03-29T01:34:48.063Z,18.77
2023-03-29T01:37:25.734Z,18.76
2023-03-29T01:39:55.636Z,18.82
2023-03-29T01:42:27.658Z,18.78
2023-03-29T01:45:09.158Z,18.80
2023-03-29T01:47:38.931Z,18.87
2023-03-29T01:50:17.132Z,19.18
2023-03-29T01:53:05.229Z,19.53
2023-03-29T01:55:45.143Z,19.80
2023-03-29T01:58:16.667Z,20.06
2023-03-29T02:00:47.277Z,20.36
2023-03-29T02:03:18.665Z,20.91
2023-03-29T02:05:49.299Z,21.34
2023-03-29T02:08:20.557Z,21.19
2023-03-29T02:10:50.389Z,21.59
2023-03-29T02:13:21.178Z,21.72
2023-03-29T02:15:50.972Z,21.91
2023-03-29T02:18:22.270Z,22.56
2023-03-29T02:20:53.671Z,23.23
2023-03-29T02:23:28.676Z,23.28
2023-03-29T02:25:59.308Z,22.90
2023-03-29T02:28:30.834Z,23.16
2023-03-29T02:31:15.974Z,23.43
2023-03-29T02:34:17.243Z,24.51
2023-03-29T02:36:52.254Z,24.89
2023-03-29T02:39:22.923Z,25.64
2023-03-29T02:41:55.966Z,25.57
2023-03-29T02:44:29.762Z,25.99
2023-03-29T02:47:01.626Z,25.46
2023-03-29T02:49:31.888Z,25.56
2023-03-29T02:52:09.305Z,25.18
2023-03-29T02:54:44.235Z,24.77
2023-03-29T02:57:14.444Z,24.67
2023-03-29T02:59:45.818Z,24.48
2023-03-29T03:02:16.065Z,24.57
2023-03-29T03:04:45.944Z,24.41
2023-03-29T03:07:15.452Z,24.38
2023-03-29T03:09:44.986Z,24.33
2023-03-29T03:12:14.164Z,24.52
2023-03-29T03:14:44.398Z,24.66
2023-03-29T03:17:13.770Z,24.75
2023-03-29T03:19:43.302Z,24.98
2023-03-29T03:22:12.774Z,24.89
2023-03-29T03:24:42.829Z,24.58
2023-03-29T03:27:13.529Z,24.71
2023-03-29T03:29:43.546Z,24.80
2023-03-29T03:32:38.894Z,24.90
2023-03-29T03:35:40.368Z,25.07
2023-03-29T03:38:10.077Z,25.23
2023-03-29T03:40:39.601Z,25.22
2023-03-29T03:43:09.079Z,25.16
2023-03-29T03:45:39.005Z,25.19
2023-03-29T03:48:16.533Z,25.35
2023-03-29T03:51:00.348Z,25.62
2023-03-29T03:53:34.910Z,25.70
2023-03-29T03:56:17.538Z,25.59
2023-03-29T03:59:08.405Z,25.63
2023-03-29T04:01:51.794Z,25.52
2023-03-29T04:04:24.726Z,25.63
2023-03-29T04:07:06.682Z,25.43
2023-03-29T04:09:56.100Z,25.40
2023-03-29T04:12:41.862Z,25.54
2023-03-29T04:15:11.596Z,25.25
2023-03-29T04:17:46.300Z,25.60
2023-03-29T04:20:41.897Z,25.98
2023-03-29T04:23:12.584Z,26.05
2023-03-29T04:25:44.406Z,25.90
2023-03-29T04:28:40.935Z,26.13
2023-03-29T04:31:22.211Z,26.27
2023-03-29T04:34:14.291Z,25.97
2023-03-29T04:36:47.684Z,26.33
2023-03-29T04:39:21.425Z,26.38
2023-03-29T04:41:56.482Z,26.30
2023-03-29T04:44:29.251Z,26.79
2023-03-29T04:47:02.058Z,26.83
2023-03-29T04:50:33.881Z,26.98
2023-03-29T04:53:04.837Z,27.78
2023-03-29T04:55:34.259Z,27.64
2023-03-29T04:58:04.332Z,27.63
2023-03-29T05:00:36.325Z,28.11
2023-03-29T05:03:24.154Z,28.13
2023-03-29T05:06:13.175Z,28.04
2023-03-29T05:08:43.364Z,27.77
2023-03-29T05:11:26.406Z,27.59
2023-03-29T05:13:58.473Z,27.54
2023-03-29T05:16:31.219Z,27.48
2023-03-29T05:19:02.749Z,27.74
2023-03-29T05:21:35.420Z,27.84
2023-03-29T05:24:09.581Z,27.59
2023-03-29T05:26:56.427Z,28.37
2023-03-29T05:29:28.321Z,28.51
2023-03-29T05:32:09.735Z,28.38
2023-03-29T05:34:40.390Z,28.77
2023-03-29T05:37:10.052Z,28.95
2023-03-29T05:39:50.836Z,28.74
2023-03-29T05:42:24.761Z,29.19
2023-03-29T05:44:58.092Z,29.68
2023-03-29T05:47:27.664Z,29.36
2023-03-29T05:49:58.558Z,29.35
2023-03-29T05:52:28.716Z,29.41
2023-03-29T05:54:58.520Z,29.78
2023-03-29T05:57:28.695Z,30.00
2023-03-29T05:59:58.448Z,30.26
2023-03-29T06:02:29.807Z,30.01
2023-03-29T06:04:59.778Z,29.75
2023-03-29T06:07:42.228Z,28.87
2023-03-29T06:10:38.826Z,28.45
2023-03-29T06:13:29.307Z,28.29
2023-03-29T06:15:58.811Z,28.52
2023-03-29T06:18:29.363Z,28.36
2023-03-29T06:20:58.872Z,28.64
2023-03-29T06:23:28.540Z,28.26
2023-03-29T06:25:58.340Z,28.73
2023-03-29T06:28:28.029Z,28.60
2023-03-29T06:31:03.812Z,28.69
2023-03-29T06:33:39.276Z,28.78
2023-03-29T06:36:23.577Z,28.36
2023-03-29T06:38:53.475Z,28.52
2023-03-29T06:41:48.935Z,28.54
2023-03-29T06:44:37.304Z,28.57
2023-03-29T06:47:14.808Z,28.61
2023-03-29T06:49:44.339Z,28.70
2023-03-29T06:52:36.956Z,29.09
2023-03-29T06:55:09.063Z,29.26
2023-03-29T06:57:41.610Z,29.30
2023-03-29T07:00:20.531Z,29.24
2023-03-29T07:03:14.350Z,28.71
2023-03-29T07:05:43.804Z,28.71
2023-03-29T07:08:17.260Z,28.70
2023-03-29T07:11:02.513Z,28.92
2023-03-29T07:13:33.992Z,28.94
2023-03-29T07:16:06.745Z,28.58
2023-03-29T07:19:02.489Z,29.05
2023-03-29T07:21:55.582Z,29.26
2023-03-29T07:24:36.307Z,29.41
2023-03-29T07:27:06.103Z,29.57
2023-03-29T07:29:35.665Z,29.37
2023-03-29T07:32:05.593Z,29.26
2023-03-29T07:34:44.444Z,29.71
2023-03-29T07:37:22.004Z,29.30
2023-03-29T07:39:52.722Z,29.16
2023-03-29T07:42:49.005Z,29.31
2023-03-29T07:45:26.644Z,29.22
2023-03-29T07:48:02.521Z,28.89
2023-03-29T07:50:48.812Z,28.79
2023-03-29T07:53:21.132Z,28.74
2023-03-29T07:55:51.849Z,28.80
2023-03-29T07:58:47.732Z,28.55
2023-03-29T08:01:20.522Z,28.64
2023-03-29T08:04:09.177Z,28.54
2023-03-29T08:06:58.139Z,28.59
2023-03-29T08:09:38.693Z,28.47
2023-03-29T08:12:08.710Z,28.66
2023-03-29T08:14:39.837Z,28.86
2023-03-29T08:17:17.944Z,28.95
2023-03-29T08:19:52.418Z,28.81
2023-03-29T08:22:24.315Z,28.79
2023-03-29T08:25:13.042Z,28.93
2023-03-29T08:27:50.782Z,29.06
2023-03-29T08:30:31.118Z,29.08
2023-03-29T08:33:01.116Z,29.19
2023-03-29T08:35:30.540Z,29.11
2023-03-29T08:38:15.525Z,28.97
2023-03-29T08:40:45.292Z,28.75
2023-03-29T08:43:24.432Z,28.72
2023-03-29T08:46:51.105Z,28.94
2023-03-29T08:49:33.789Z,29.09
2023-03-29T08:52:16.204Z,28.67
2023-03-29T08:54:51.061Z,28.65
2023-03-29T08:57:57.253Z,28.75
2023-03-29T09:00:56.781Z,28.64
2023-03-29T09:03:31.850Z,28.47
2023-03-29T09:06:14.881Z,28.68
2023-03-29T09:08:50.402Z,28.33
2023-03-29T09:11:53.015Z,28.21
2023-03-29T09:14:51.236Z,28.42
2023-03-29T09:17:56.123Z,28.66
2023-03-29T09:20:38.672Z,28.59
2023-03-29T09:23:13.364Z,28.57
2023-03-29T09:26:09.708Z,28.73
2023-03-29T09:29:42.397Z,28.73
2023-03-29T09:32:23.769Z,28.82
2023-03-29T09:35:20.263Z,28.65
2023-03-29T09:37:55.999Z,28.39
2023-03-29T09:40:41.387Z,28.39
2023-03-29T09:43:19.988Z,28.40
2023-03-29T09:45:57.255Z,28.54
2023-03-29T09:48:30.711Z,28.61
2023-03-29T09:51:03.923Z,28.61
2023-03-29T09:53:34.987Z,28.54
2023-03-29T09:56:35.895Z,28.34
2023-03-29T09:59:14.090Z,28.16
2023-03-29T10:01:48.983Z,28.00
2023-03-29T10:04:20.127Z,27.90
2023-03-29T10:06:57.553Z,27.72
2023-03-29T10:09:32.039Z,27.67
2023-03-29T10:12:17.697Z,27.67
2023-03-29T10:14:55.896Z,27.66
2023-03-29T10:17:31.348Z,27.64
2023-03-29T10:20:04.992Z,27.64
2023-03-29T10:22:43.027Z,27.64
2023-03-29T10:25:18.690Z,27.55
2023-03-29T10:27:50.162Z,27.58
2023-03-29T10:30:29.488Z,27.55
2023-03-29T10:33:01.327Z,27.53
2023-03-29T10:35:35.132Z,27.45
2023-03-29T10:38:17.879Z,27.38
2023-03-29T10:40:51.610Z,27.33
2023-03-29T10:43:36.954Z,27.26
2023-03-29T10:46:14.487Z,27.23
2023-03-29T10:48:59.442Z,27.26
2023-03-29T10:51:35.695Z,27.21
2023-03-29T10:54:08.601Z,27.09
2023-03-29T10:56:42.618Z,27.04
2023-03-29T10:59:34.669Z,26.99
2023-03-29T11:02:30.663Z,27.00
2023-03-29T11:05:19.213Z,27.01
2023-03-29T11:08:09.892Z,27.01
2023-03-29T11:10:54.438Z,27.02
2023-03-29T11:13:35.151Z,26.95
2023-03-29T11:16:14.085Z,26.80
2023-03-29T11:19:14.169Z,26.76
2023-03-29T11:22:21.906Z,26.66
2023-03-29T11:25:14.405Z,26.64
2023-03-29T11:27:52.419Z,26.62
2023-03-29T11:31:03.714Z,26.69
2023-03-29T11:34:15.780Z,26.65
2023-03-29T11:36:59.754Z,26.57
2023-03-29T11:40:15.924Z,26.59
2023-03-29T11:42:50.072Z,26.57
2023-03-29T11:45:42.012Z,26.62
2023-03-29T11:48:25.682Z,26.75
2023-03-29T11:51:02.449Z,26.81
2023-03-29T11:53:57.510Z,26.81
2023-03-29T11:56:51.176Z,26.79
2023-03-29T11:59:42.228Z,26.76
2023-03-29T12:02:29.932Z,26.71
2023-03-29T12:05:10.955Z,26.70
2023-03-29T12:08:01.834Z,26.64
2023-03-29T12:10:51.029Z,26.60
2023-03-29T12:13:26.883Z,26.54
2023-03-29T12:16:45.450Z,26.39
2023-03-29T12:19:33.089Z,26.30
2023-03-29T12:22:03.507Z,26.24
2023-03-29T12:24:40.887Z,26.26
2023-03-29T12:27:25.250Z,26.19
2023-03-29T12:30:16.305Z,26.12
2023-03-29T12:32:54.567Z,26.07
2023-03-29T12:36:33.229Z,26.00
2023-03-29T12:39:24.388Z,25.89
2023-03-29T12:42:23.456Z,25.84
2023-03-29T12:45:36.358Z,25.80
2023-03-29T12:48:09.695Z,25.72
2023-03-29T12:50:52.046Z,25.69
2023-03-29T12:53:37.179Z,25.65
2023-03-29T12:56:21.908Z,25.63
2023-03-29T12:59:18.494Z,25.60
2023-03-29T13:02:26.661Z,25.54
2023-03-29T13:05:06.151Z,25.50
2023-03-29T13:08:01.004Z,25.49
2023-03-29T13:10:43.671Z,25.48
2023-03-29T13:13:20.818Z,25.46
2023-03-29T13:15:54.031Z,25.43
2023-03-29T13:18:54.495Z,25.42
2023-03-29T13:21:42.448Z,25.40
2023-03-29T13:24:17.975Z,25.36
2023-03-29T13:26:56.955Z,25.36
2023-03-29T13:29:41.192Z,25.36
2023-03-29T13:32:30.034Z,25.36
2023-03-29T13:35:38.625Z,25.34
2023-03-29T13:38:32.410Z,25.34
2023-03-29T13:41:02.719Z,25.29
2023-03-29T13:43:56.269Z,25.28
2023-03-29T13:46:47.056Z,25.25
2023-03-29T13:49:31.117Z,25.21
2023-03-29T13:52:25.977Z,25.21
2023-03-29T13:55:19.529Z,25.19
2023-03-29T13:58:06.574Z,25.18
2023-03-29T14:00:46.067Z,25.15
2023-03-29T14:03:21.881Z,25.12
2023-03-29T14:06:04.133Z,25.09
2023-03-29T14:08:45.554Z,25.03
2023-03-29T14:11:38.511Z,25.02
2023-03-29T14:14:14.104Z,24.98
2023-03-29T14:16:48.616Z,24.93
2023-03-29T14:19:23.526Z,24.88
2023-03-29T14:22:03.102Z,24.88
2023-03-29T14:24:46.076Z,24.83
2023-03-29T14:27:16.497Z,24.71
2023-03-29T14:29:53.554Z,24.62
2023-03-29T14:32:31.204Z,24.59
2023-03-29T14:35:10.703Z,24.57
2023-03-29T14:37:47.510Z,24.55
2023-03-29T14:40:21.904Z,24.50
2023-03-29T14:42:54.183Z,24.48
2023-03-29T14:45:26.800Z,24.47
2023-03-29T14:47:57.109Z,24.41
2023-03-29T14:50:31.963Z,24.37
2023-03-29T14:53:07.206Z,24.34
2023-03-29T14:55:41.216Z,24.27
2023-03-29T14:58:25.650Z,24.25
2023-03-29T15:00:56.731Z,24.22
2023-03-29T15:03:30.477Z,24.17
2023-03-29T15:06:05.510Z,24.11
2023-03-29T15:08:45.796Z,24.08
2023-03-29T15:11:30.458Z,24.02
2023-03-29T15:14:15.124Z,23.97
2023-03-29T15:16:46.882Z,23.98
2023-03-29T15:19:21.562Z,23.96
2023-03-29T15:21:52.352Z,23.93
2023-03-29T15:24:33.800Z,23.90
2023-03-29T15:27:07.127Z,23.91
2023-03-29T15:29:42.800Z,23.90
2023-03-29T15:32:21.601Z,23.92
2023-03-29T15:35:01.647Z,23.89
2023-03-29T15:37:31.122Z,23.92
2023-03-29T15:40:00.211Z,23.88
2023-03-29T15:42:30.438Z,23.87
2023-03-29T15:44:59.866Z,23.79
2023-03-29T15:47:30.144Z,23.78
2023-03-29T15:49:59.517Z,23.80
2023-03-29T15:52:30.878Z,23.78
2023-03-29T15:55:00.285Z,23.78
2023-03-29T15:57:29.893Z,23.80
2023-03-29T15:59:59.668Z,23.77
2023-03-29T16:02:29.271Z,23.73
2023-03-29T16:04:58.922Z,23.65
2023-03-29T16:07:29.400Z,23.59
2023-03-29T16:09:58.825Z,23.55
2023-03-29T16:12:28.054Z,23.53
2023-03-29T16:14:57.461Z,23.55
2023-03-29T16:17:26.778Z,23.61
2023-03-29T16:19:56.067Z,23.65
2023-03-29T16:22:26.159Z,23.67
2023-03-29T16:24:55.327Z,23.53
2023-03-29T16:27:24.772Z,23.51
2023-03-29T16:29:54.046Z,23.52
2023-03-29T16:32:23.503Z,23.50
2023-03-29T16:34:53.443Z,23.48
2023-03-29T16:37:22.546Z,23.54
2023-03-29T16:39:52.619Z,23.54
2023-03-29T16:42:22.100Z,23.61
2023-03-29T16:44:51.775Z,23.67
2023-03-29T16:47:21.455Z,23.56
2023-03-29T16:49:51.041Z,23.41
2023-03-29T16:52:20.615Z,23.35
2023-03-29T16:54:50.250Z,23.40
2023-03-29T16:57:20.399Z,23.28
2023-03-29T16:59:50.326Z,22.97
2023-03-29T17:02:20.365Z,22.89
2023-03-29T17:04:49.872Z,22.91
2023-03-29T17:07:19.663Z,22.84
2023-03-29T17:09:49.626Z,22.79
2023-03-29T17:12:20.478Z,22.72
2023-03-29T17:14:51.248Z,22.72
2023-03-29T17:17:21.087Z,22.67
2023-03-29T17:19:51.885Z,22.69
2023-03-29T17:22:21.857Z,22.75
2023-03-29T17:24:52.776Z,22.76
2023-03-29T17:27:22.542Z,22.65
2023-03-29T17:29:52.934Z,22.66
2023-03-29T17:32:23.398Z,22.58
2023-03-29T17:34:55.481Z,22.60
2023-03-29T17:37:25.801Z,22.57
2023-03-29T17:39:57.147Z,22.61
2023-03-29T17:42:31.040Z,22.61
2023-03-29T17:45:02.288Z,22.63
2023-03-29T17:47:33.180Z,22.60
2023-03-29T17:50:05.780Z,22.55
2023-03-29T17:52:36.255Z,22.43
2023-03-29T17:55:07.217Z,22.48
2023-03-29T17:57:38.219Z,22.50
2023-03-29T18:00:14.693Z,22.52
2023-03-29T18:02:45.909Z,22.54
2023-03-29T18:05:17.829Z,22.51
2023-03-29T18:07:49.483Z,22.52
2023-03-29T18:10:21.553Z,22.47
2023-03-29T18:12:51.867Z,22.43
2023-03-29T18:15:23.015Z,22.45
2023-03-29T18:17:53.537Z,22.39
2023-03-29T18:20:25.403Z,22.42
2023-03-29T18:22:56.324Z,22.36
2023-03-29T18:25:27.576Z,22.43
2023-03-29T18:27:57.932Z,22.49
2023-03-29T18:30:29.285Z,22.47
2023-03-29T18:32:59.888Z,22.47
2023-03-29T18:35:30.792Z,22.49
2023-03-29T18:38:01.383Z,22.49
2023-03-29T18:40:32.415Z,22.42
2023-03-29T18:43:03.327Z,22.33
2023-03-29T18:45:34.265Z,22.44
2023-03-29T18:48:06.744Z,22.56
2023-03-29T18:50:37.462Z,22.64
2023-03-29T18:53:07.950Z,22.97
2023-03-29T18:55:38.388Z,23.07
2023-03-29T18:58:11.695Z,23.12
2023-03-29T19:00:45.264Z,23.16
2023-03-29T19:03:15.792Z,23.17
2023-03-29T19:05:46.197Z,23.19
2023-03-29T19:08:16.245Z,23.17
2023-03-29T19:10:45.607Z,23.18
2023-03-29T19:13:15.791Z,23.17
2023-03-29T19:15:46.774Z,23.17
2023-03-29T19:18:16.754Z,23.14
2023-03-29T19:20:46.824Z,23.00
2023-03-29T19:23:17.942Z,22.90
2023-03-29T19:25:59.329Z,22.75
2023-03-29T19:28:30.274Z,22.63
2023-03-29T19:31:02.441Z,22.51
2023-03-29T19:33:33.667Z,22.34
2023-03-29T19:36:04.456Z,22.20
2023-03-29T19:38:34.977Z,22.14
2023-03-29T19:41:09.163Z,22.10
2023-03-29T19:43:39.219Z,22.01
2023-03-29T19:46:14.458Z,21.89
2023-03-29T19:48:44.320Z,21.74
2023-03-29T19:51:14.320Z,21.62
2023-03-29T19:53:45.011Z,21.54
2023-03-29T19:56:15.898Z,21.48
2023-03-29T19:58:45.339Z,21.47
2023-03-29T20:01:19.186Z,21.44
2023-03-29T20:03:51.518Z,21.44
2023-03-29T20:06:22.580Z,21.38
2023-03-29T20:08:54.254Z,21.34
2023-03-29T20:11:25.734Z,21.34
2023-03-29T20:13:57.074Z,21.32
2023-03-29T20:16:28.126Z,21.27
2023-03-29T20:18:58.553Z,21.28
2023-03-29T20:21:28.715Z,21.21
2023-03-29T20:23:59.260Z,21.20
2023-03-29T20:26:30.296Z,21.18
2023-03-29T20:29:00.469Z,21.19
2023-03-29T20:31:31.338Z,21.13
2023-03-29T20:34:01.960Z,21.16
2023-03-29T20:36:33.245Z,21.02
2023-03-29T20:39:04.330Z,21.02
2023-03-29T20:41:34.867Z,21.01
2023-03-29T20:44:05.860Z,21.00
2023-03-29T20:46:35.970Z,20.99
2023-03-29T20:49:10.227Z,20.97
2023-03-29T20:51:40.303Z,20.92
2023-03-29T20:54:11.547Z,20.94
2023-03-29T20:56:43.473Z,20.91
2023-03-29T20:59:13.374Z,20.86
2023-03-29T21:01:43.767Z,20.84
2023-03-29T21:04:14.349Z,20.84
2023-03-29T21:06:46.747Z,20.85
2023-03-29T21:09:16.146Z,20.86
2023-03-29T21:11:46.163Z,20.90
2023-03-29T21:14:20.729Z,20.89
2023-03-29T21:16:50.937Z,20.89
2023-03-29T21:19:21.006Z,20.88
2023-03-29T21:21:53.430Z,20.95
2023-03-29T21:24:24.088Z,20.98
2023-03-29T21:26:53.758Z,20.91
2023-03-29T21:29:23.946Z,20.89
2023-03-29T21:31:54.129Z,20.86
2023-03-29T21:34:24.562Z,20.95
2023-03-29T21:36:55.112Z,20.94
2023-03-29T21:39:28.314Z,20.95
2023-03-29T21:42:00.500Z,20.93
2023-03-29T21:44:32.578Z,20.88
2023-03-29T21:47:04.256Z,20.83
2023-03-29T21:49:34.768Z,20.94
2023-03-29T21:52:04.810Z,20.91
2023-03-29T21:54:35.570Z,20.89
2023-03-29T21:57:05.820Z,20.85
2023-03-29T21:59:36.975Z,20.89
2023-03-29T22:02:07.215Z,20.91
2023-03-29T22:04:37.892Z,20.91
2023-03-29T22:07:11.759Z,20.84
2023-03-29T22:09:43.728Z,20.83
2023-03-29T22:12:13.322Z,20.85
2023-03-29T22:14:43.373Z,20.85
2023-03-29T22:17:13.112Z,20.88
2023-03-29T22:19:43.023Z,20.91
2023-03-29T22:22:16.054Z,20.97
2023-03-29T22:24:46.571Z,20.97
2023-03-29T22:27:16.492Z,20.96
2023-03-29T22:29:47.075Z,20.94
2023-03-29T22:32:18.312Z,20.90
2023-03-29T22:34:47.955Z,20.93
2023-03-29T22:37:17.673Z,20.89
2023-03-29T22:39:47.304Z,20.86
2023-03-29T22:42:17.597Z,20.83
2023-03-29T22:44:48.424Z,20.88
2023-03-29T22:47:18.639Z,20.90
2023-03-29T22:49:48.853Z,20.75
2023-03-29T22:52:18.841Z,20.65
2023-03-29T22:54:48.953Z,20.59
2023-03-29T22:57:19.375Z,20.59
2023-03-29T22:59:50.015Z,20.68
2023-03-29T23:02:20.370Z,20.68
2023-03-29T23:04:50.739Z,20.61
2023-03-29T23:07:20.940Z,20.58
2023-03-29T23:09:51.764Z,20.62
2023-03-29T23:12:22.547Z,20.57
2023-03-29T23:14:54.407Z,20.51
2023-03-29T23:17:25.328Z,20.55
2023-03-29T23:19:55.734Z,20.60
2023-03-29T23:22:26.420Z,20.57
2023-03-29T23:24:56.682Z,20.59
2023-03-29T23:27:27.306Z,20.60
2023-03-29T23:29:57.941Z,20.76
2023-03-29T23:32:28.415Z,20.81
2023-03-29T23:34:59.378Z,20.74
2023-03-29T23:37:29.511Z,20.89
2023-03-29T23:40:00.214Z,20.87
2023-03-29T23:42:31.635Z,20.82
2023-03-29T23:45:01.875Z,20.81
2023-03-29T23:47:32.519Z,20.87
2023-03-29T23:50:05.291Z,20.92
2023-03-29T23:52:36.926Z,20.95
2023-03-29T23:55:09.841Z,20.86
2023-03-29T23:57:45.201Z,20.87
